LFPO 211130Z AUTO 34006KT 9999 SCT018 SCT024 OVC043 05/02 Q1038 TEMPO BKN012

ElémentsDécodage
LFPO Station météo située sur l'aérodrome de PARIS Orly
211130Z émis le 21 du mois à 11h30 UTC
AUTO Bulletin édité par un automate
34006KT vent du 340°, 06 noeuds
9999 visibilité horizontale supérieure à 10 Km
SCT018 nuages épars (3/8 à 4/8) à 1800 pieds
SCT024 nuages épars (3/8 à 4/8) à 2400 pieds
OVC043 couverture nuageuse totale (8/8) à 4300 pieds
05/02 température 05°C, point de rosée 02°C
 soit une humidité relative de 81%
Q1038 la pression au niveau de la mer (QNH) est de 1038 hPa
TEMPO fluctuation temporaire prévue
BKN012 nuages morcelés (5/8 à 7/8) à 1200 pieds